createdAt,value
2023-05-14T00:01:51.738Z,7.07
2023-05-14T00:04:19.603Z,7.47
2023-05-14T00:06:47.222Z,7.83
2023-05-14T00:09:14.616Z,7.63
2023-05-14T00:11:42.022Z,7.73
2023-05-14T00:14:09.374Z,7.60
2023-05-14T00:16:36.794Z,7.63
2023-05-14T00:19:05.624Z,8.23
2023-05-14T00:21:33.034Z,8.33
2023-05-14T00:24:00.478Z,8.13
2023-05-14T00:26:27.874Z,7.67
2023-05-14T00:28:55.266Z,8.03
2023-05-14T00:31:22.724Z,7.57
2023-05-14T00:33:50.152Z,8.20
2023-05-14T00:36:18.873Z,7.80
2023-05-14T00:38:46.284Z,7.67
2023-05-14T00:41:13.708Z,7.80
2023-05-14T00:43:41.943Z,7.53
2023-05-14T00:46:09.395Z,7.63
2023-05-14T00:48:36.802Z,7.57
2023-05-14T00:51:05.033Z,8.30
2023-05-14T00:53:33.935Z,7.63
2023-05-14T00:56:01.607Z,7.27
2023-05-14T00:58:29.070Z,8.03
2023-05-14T01:00:56.521Z,7.77
2023-05-14T01:06:13.246Z,7.80
2023-05-14T01:08:46.693Z,7.43
2023-05-14T01:11:18.336Z,7.60
2023-05-14T01:13:49.705Z,7.13
2023-05-14T01:16:20.115Z,6.90
2023-05-14T01:18:49.866Z,7.00
2023-05-14T01:21:35.701Z,7.50
2023-05-14T01:24:03.110Z,7.00
2023-05-14T01:26:31.377Z,7.77
2023-05-14T01:29:01.991Z,7.90
2023-05-14T01:31:32.170Z,7.90
2023-05-14T01:34:00.023Z,8.43
2023-05-14T01:36:29.920Z,7.87
2023-05-14T01:38:57.864Z,8.90
2023-05-14T01:41:26.136Z,7.60
2023-05-14T01:43:53.634Z,7.40
2023-05-14T01:46:21.171Z,7.93
2023-05-14T01:48:48.635Z,7.87
2023-05-14T01:51:15.992Z,7.40
2023-05-14T01:53:44.716Z,7.50
2023-05-14T01:56:12.196Z,7.63
2023-05-14T01:58:39.645Z,7.60
2023-05-14T02:01:07.143Z,7.50
2023-05-14T02:03:34.602Z,8.00
2023-05-14T02:06:02.032Z,9.73
2023-05-14T02:08:29.410Z,9.17
2023-05-14T02:10:58.218Z,8.17
2023-05-14T02:13:27.010Z,8.90
2023-05-14T02:15:54.435Z,8.67
2023-05-14T02:18:21.870Z,9.23
2023-05-14T02:20:49.371Z,8.47
2023-05-14T02:23:17.966Z,9.00
2023-05-14T02:25:45.615Z,8.53
2023-05-14T02:28:14.392Z,8.70
2023-05-14T02:30:41.849Z,8.27
2023-05-14T02:33:09.376Z,7.93
2023-05-14T02:35:37.300Z,8.60
2023-05-14T02:38:05.804Z,8.10
2023-05-14T02:40:33.291Z,8.47
2023-05-14T02:43:01.557Z,8.77
2023-05-14T02:45:30.324Z,8.37
2023-05-14T02:47:57.818Z,9.10
2023-05-14T02:50:25.609Z,9.30
2023-05-14T02:52:53.329Z,8.80
2023-05-14T02:55:20.754Z,8.67
2023-05-14T02:57:48.207Z,9.30
2023-05-14T03:00:15.790Z,9.20
2023-05-14T03:02:45.335Z,8.73
2023-05-14T03:05:13.320Z,8.17
2023-05-14T03:07:40.770Z,7.93
2023-05-14T03:10:08.619Z,8.33
2023-05-14T03:12:35.972Z,8.20
2023-05-14T03:15:03.845Z,7.70
2023-05-14T03:17:31.432Z,7.63
2023-05-14T03:20:00.612Z,7.70
2023-05-14T03:22:28.168Z,7.37
2023-05-14T03:24:55.698Z,8.10
2023-05-14T03:27:23.080Z,7.27
2023-05-14T03:29:50.592Z,8.00
2023-05-14T03:32:18.309Z,7.70
2023-05-14T03:34:45.797Z,8.67
2023-05-14T03:37:14.628Z,7.60
2023-05-14T03:39:42.000Z,8.13
2023-05-14T03:42:09.420Z,7.53
2023-05-14T03:44:36.828Z,7.30
2023-05-14T03:47:04.553Z,7.37
2023-05-14T03:49:32.845Z,7.13
2023-05-14T03:52:00.588Z,7.17
2023-05-14T03:54:29.361Z,7.20
2023-05-14T03:56:56.752Z,7.47
2023-05-14T03:59:24.284Z,7.93
2023-05-14T04:01:51.674Z,7.70
2023-05-14T04:04:20.122Z,7.67
2023-05-14T04:06:47.665Z,7.57
2023-05-14T04:09:15.079Z,7.20
2023-05-14T04:11:43.848Z,7.27
2023-05-14T04:14:11.338Z,7.80
2023-05-14T04:16:38.770Z,8.13
2023-05-14T04:19:07.247Z,8.10
2023-05-14T04:21:34.718Z,7.90
2023-05-14T04:24:02.084Z,8.60
2023-05-14T04:26:29.424Z,8.50
2023-05-14T04:28:58.184Z,8.00
2023-05-14T04:31:26.026Z,8.90
2023-05-14T04:33:53.453Z,7.67
2023-05-14T04:36:20.851Z,8.50
2023-05-14T04:38:48.234Z,8.57
2023-05-14T04:41:15.699Z,8.90
2023-05-14T04:43:43.129Z,8.90
2023-05-14T04:46:11.947Z,8.77
2023-05-14T04:48:39.467Z,8.93
2023-05-14T04:51:07.349Z,9.40
2023-05-14T04:53:34.769Z,10.47
2023-05-14T04:56:02.210Z,10.17
2023-05-14T04:58:32.834Z,10.33
2023-05-14T05:01:02.746Z,10.93
2023-05-14T05:03:32.016Z,10.10
2023-05-14T05:05:59.431Z,9.63
2023-05-14T05:08:27.155Z,9.77
2023-05-14T05:10:54.605Z,9.27
2023-05-14T05:13:22.016Z,9.30
2023-05-14T05:15:49.443Z,9.13
2023-05-14T05:18:16.873Z,9.07
2023-05-14T05:20:45.634Z,9.77
2023-05-14T05:23:13.032Z,9.50
2023-05-14T05:25:40.538Z,9.90
2023-05-14T05:28:07.959Z,10.53
2023-05-14T05:30:35.470Z,10.53
2023-05-14T05:33:03.418Z,10.20
2023-05-14T05:35:30.954Z,11.50
2023-05-14T05:38:01.624Z,11.20
2023-05-14T05:40:29.348Z,11.57
2023-05-14T05:42:56.796Z,12.00
2023-05-14T05:45:24.312Z,12.53
2023-05-14T05:47:51.763Z,13.13
2023-05-14T05:50:20.006Z,12.43
2023-05-14T05:52:47.767Z,12.67
2023-05-14T05:55:16.649Z,11.80
2023-05-14T05:57:44.010Z,11.10
2023-05-14T06:00:15.090Z,11.60
2023-05-14T06:02:42.799Z,11.30
2023-05-14T06:05:11.393Z,11.77
2023-05-14T06:07:38.915Z,11.70
2023-05-14T06:10:07.293Z,11.77
2023-05-14T06:12:36.093Z,11.77
2023-05-14T06:15:03.655Z,11.20
2023-05-14T06:17:31.164Z,11.70
2023-05-14T06:19:58.638Z,11.33
2023-05-14T06:22:26.069Z,11.53
2023-05-14T06:24:53.415Z,11.17
2023-05-14T06:27:20.905Z,12.03
2023-05-14T06:29:50.022Z,11.90
2023-05-14T06:32:17.593Z,12.67
2023-05-14T06:34:45.234Z,12.17
2023-05-14T06:37:12.811Z,11.50
2023-05-14T06:39:40.297Z,12.07
2023-05-14T06:42:07.954Z,11.87
2023-05-14T06:44:37.152Z,11.90
2023-05-14T06:47:08.397Z,12.60
2023-05-14T06:49:35.962Z,12.77
2023-05-14T06:52:03.553Z,12.10
2023-05-14T06:54:31.057Z,12.10
2023-05-14T06:56:58.407Z,11.87
2023-05-14T06:59:26.282Z,12.33
2023-05-14T07:01:53.733Z,12.30
2023-05-14T07:04:22.596Z,12.63
2023-05-14T07:06:50.050Z,11.53
2023-05-14T07:09:17.481Z,12.37
2023-05-14T07:11:44.881Z,12.53
2023-05-14T07:14:12.310Z,11.77
2023-05-14T07:16:40.232Z,11.30
2023-05-14T07:19:07.745Z,12.20
2023-05-14T07:21:36.865Z,12.67
2023-05-14T07:24:04.425Z,12.23
2023-05-14T07:26:32.271Z,11.17
2023-05-14T07:28:59.703Z,11.00
2023-05-14T07:31:27.171Z,10.77
2023-05-14T07:33:54.626Z,11.50
2023-05-14T07:36:22.580Z,10.83
2023-05-14T07:38:51.325Z,11.63
2023-05-14T07:41:18.714Z,12.20
2023-05-14T07:43:46.082Z,11.37
2023-05-14T07:46:13.582Z,11.80
2023-05-14T07:48:41.040Z,10.97
2023-05-14T07:51:08.461Z,10.77
2023-05-14T07:53:35.833Z,11.40
2023-05-14T07:56:04.654Z,10.77
2023-05-14T07:58:32.156Z,10.40
2023-05-14T08:01:01.597Z,10.60
2023-05-14T08:03:29.171Z,11.17
2023-05-14T08:05:56.621Z,11.13
2023-05-14T08:08:24.069Z,11.20
2023-05-14T08:10:51.805Z,11.33
2023-05-14T08:13:20.565Z,11.93
2023-05-14T08:15:48.079Z,11.27
2023-05-14T08:18:15.466Z,11.50
2023-05-14T08:20:42.967Z,11.53
2023-05-14T08:23:10.390Z,10.73
2023-05-14T08:25:37.754Z,10.80
2023-05-14T08:28:05.380Z,11.20
2023-05-14T08:30:34.212Z,10.47
2023-05-14T08:33:02.027Z,11.00
2023-05-14T08:35:29.541Z,11.30
2023-05-14T08:37:57.790Z,11.37
2023-05-14T08:40:25.364Z,11.13
2023-05-14T08:42:53.314Z,11.00
2023-05-14T08:45:21.439Z,10.93
2023-05-14T08:47:51.433Z,10.97
2023-05-14T08:50:21.904Z,10.90
2023-05-14T08:52:50.600Z,10.97
2023-05-14T08:55:18.045Z,10.97
2023-05-14T08:57:45.783Z,10.93
2023-05-14T09:00:15.244Z,10.83
2023-05-14T09:02:43.116Z,10.63
2023-05-14T09:05:12.294Z,10.10
2023-05-14T09:07:39.740Z,10.63
2023-05-14T09:10:08.820Z,8.93
2023-05-14T09:12:36.239Z,8.57
2023-05-14T09:15:04.594Z,8.07
2023-05-14T09:17:32.083Z,8.53
2023-05-14T09:19:59.527Z,7.90
2023-05-14T09:22:31.713Z,7.93
2023-05-14T09:25:06.207Z,7.77
2023-05-14T09:27:34.125Z,7.63
2023-05-14T09:30:08.643Z,7.37
2023-05-14T09:32:37.022Z,7.30
2023-05-14T09:35:16.932Z,7.83
2023-05-14T09:37:46.524Z,7.23
2023-05-14T09:40:14.379Z,8.10
2023-05-14T09:42:42.336Z,7.53
2023-05-14T09:45:10.177Z,7.90
2023-05-14T09:47:37.810Z,7.43
2023-05-14T09:50:05.746Z,7.30
2023-05-14T09:52:33.198Z,7.90
2023-05-14T09:55:02.190Z,7.20
2023-05-14T09:57:29.625Z,8.63
2023-05-14T09:59:57.084Z,7.57
2023-05-14T10:02:25.535Z,8.17
2023-05-14T10:04:54.603Z,8.20
2023-05-14T10:07:23.244Z,8.53
2023-05-14T10:09:53.452Z,8.90
2023-05-14T10:12:23.133Z,8.87
2023-05-14T10:14:53.242Z,8.20
2023-05-14T10:17:20.821Z,8.63
2023-05-14T10:19:50.816Z,9.37
2023-05-14T10:22:19.675Z,8.90
2023-05-14T10:24:47.296Z,9.13
2023-05-14T10:27:15.124Z,9.13
2023-05-14T10:29:53.669Z,8.80
2023-05-14T10:32:21.436Z,9.93
2023-05-14T10:34:49.098Z,9.57
2023-05-14T10:37:17.614Z,8.77
2023-05-14T10:39:46.408Z,9.03
2023-05-14T10:42:14.371Z,9.33
2023-05-14T10:44:46.248Z,9.20
2023-05-14T10:47:13.718Z,9.87
2023-05-14T10:49:43.799Z,9.97
2023-05-14T10:52:11.982Z,8.83
2023-05-14T10:54:39.803Z,9.27
2023-05-14T10:57:12.040Z,8.93
2023-05-14T10:59:42.651Z,9.50
2023-05-14T11:02:21.360Z,9.00
2023-05-14T11:04:53.265Z,8.53
2023-05-14T11:07:23.643Z,8.67
2023-05-14T11:09:51.744Z,8.80
2023-05-14T11:12:19.305Z,8.90
2023-05-14T11:14:47.627Z,8.80
2023-05-14T11:17:15.907Z,8.97
2023-05-14T11:19:45.829Z,9.10
2023-05-14T11:22:14.456Z,8.73
2023-05-14T11:24:41.846Z,8.70
2023-05-14T11:27:09.769Z,8.17
2023-05-14T11:29:37.435Z,8.07
2023-05-14T11:32:06.154Z,8.70
2023-05-14T11:34:34.506Z,8.70
2023-05-14T11:37:05.489Z,8.30
2023-05-14T11:39:33.488Z,8.47
2023-05-14T11:42:03.214Z,8.80
2023-05-14T11:44:30.701Z,8.80
2023-05-14T11:46:58.445Z,9.20
2023-05-14T11:49:26.755Z,9.53
2023-05-14T11:51:58.127Z,8.87
2023-05-14T11:54:28.173Z,8.77
2023-05-14T11:56:55.589Z,8.43
2023-05-14T11:59:24.941Z,9.10
2023-05-14T12:01:53.301Z,8.70
2023-05-14T12:04:22.396Z,9.17
2023-05-14T12:06:50.344Z,8.40
2023-05-14T12:09:17.802Z,8.73
2023-05-14T12:11:47.263Z,8.23
2023-05-14T12:14:16.514Z,8.03
2023-05-14T12:16:44.862Z,8.10
2023-05-14T12:19:12.754Z,6.53
2023-05-14T12:21:40.781Z,6.47
2023-05-14T12:24:10.667Z,6.63
2023-05-14T12:26:39.292Z,6.80
2023-05-14T12:29:08.036Z,6.73
2023-05-14T12:31:36.258Z,6.03
2023-05-14T12:34:04.476Z,6.33
2023-05-14T12:36:32.534Z,6.50
2023-05-14T12:39:01.646Z,5.93
2023-05-14T12:41:29.081Z,5.83
2023-05-14T12:43:56.535Z,6.07
2023-05-14T12:46:26.363Z,6.20
2023-05-14T12:48:53.778Z,6.20
2023-05-14T12:51:21.250Z,5.37
2023-05-14T12:53:49.253Z,5.97
2023-05-14T12:56:16.959Z,6.07
2023-05-14T12:58:46.532Z,5.53
2023-05-14T13:01:14.029Z,5.27
2023-05-14T13:03:42.865Z,5.43
2023-05-14T13:06:10.403Z,6.03
2023-05-14T13:08:37.818Z,5.90
2023-05-14T13:11:05.210Z,6.17
2023-05-14T13:13:32.647Z,5.33
2023-05-14T13:16:00.896Z,5.43
2023-05-14T13:18:28.392Z,5.20
2023-05-14T13:20:57.198Z,5.70
2023-05-14T13:23:24.844Z,5.30
2023-05-14T13:25:52.274Z,5.33
2023-05-14T13:28:19.663Z,5.13
2023-05-14T13:31:03.233Z,4.83
2023-05-14T13:33:30.690Z,4.83
2023-05-14T13:35:59.425Z,5.00
2023-05-14T13:38:26.856Z,5.27
2023-05-14T13:40:54.258Z,4.70
2023-05-14T13:43:21.675Z,4.93
2023-05-14T13:45:49.025Z,4.97
2023-05-14T13:48:16.539Z,4.77
2023-05-14T13:50:44.020Z,4.90
2023-05-14T13:53:12.756Z,4.70
2023-05-14T13:55:40.155Z,5.17
2023-05-14T13:58:09.848Z,5.50
2023-05-14T14:00:37.295Z,6.07
2023-05-14T14:03:04.827Z,6.43
2023-05-14T14:05:32.493Z,6.10
2023-05-14T14:08:04.490Z,5.90
2023-05-14T14:10:48.758Z,6.70
2023-05-14T14:13:16.211Z,6.90
2023-05-14T14:15:44.213Z,6.23
2023-05-14T14:18:11.731Z,6.80
2023-05-14T14:20:39.222Z,6.43
2023-05-14T14:23:06.611Z,6.77
2023-05-14T14:25:34.141Z,6.23
2023-05-14T14:28:02.938Z,6.27
2023-05-14T14:30:30.337Z,6.50
2023-05-14T14:32:57.890Z,6.50
2023-05-14T14:35:25.600Z,6.17
2023-05-14T14:37:53.784Z,5.50
2023-05-14T14:40:23.412Z,6.97
2023-05-14T14:42:51.017Z,7.23
2023-05-14T14:45:19.760Z,6.57
2023-05-14T14:47:48.353Z,5.43
2023-05-14T14:50:15.920Z,6.23
2023-05-14T14:52:45.908Z,5.83
2023-05-14T14:55:13.701Z,6.37
2023-05-14T14:57:41.070Z,5.80
2023-05-14T15:00:09.114Z,5.90
2023-05-14T15:02:41.863Z,5.40
2023-05-14T15:05:09.863Z,5.20
2023-05-14T15:07:37.288Z,5.33
2023-05-14T15:10:05.019Z,4.83
2023-05-14T15:12:32.391Z,4.47
2023-05-14T15:14:59.752Z,4.50
2023-05-14T15:17:27.259Z,4.70
2023-05-14T15:19:55.982Z,4.80
2023-05-14T15:22:23.412Z,4.40
2023-05-14T15:24:50.905Z,4.47
2023-05-14T15:27:18.327Z,4.80
2023-05-14T15:29:45.741Z,4.53
2023-05-14T15:32:13.156Z,4.63
2023-05-14T15:34:40.528Z,4.40
2023-05-14T15:37:09.272Z,4.77
2023-05-14T15:39:36.774Z,4.80
2023-05-14T15:42:04.537Z,4.27
2023-05-14T15:44:31.987Z,3.90
2023-05-14T15:46:59.373Z,2.97
2023-05-14T15:49:26.814Z,3.07
2023-05-14T15:51:54.363Z,3.00
2023-05-14T15:54:23.202Z,2.87
2023-05-14T15:56:51.420Z,3.20
2023-05-14T15:59:18.851Z,2.70
2023-05-14T16:01:46.316Z,2.50
2023-05-14T16:04:13.791Z,2.70
2023-05-14T16:06:42.574Z,2.40
2023-05-14T16:09:09.949Z,2.53
2023-05-14T16:11:38.652Z,2.30
2023-05-14T16:14:06.779Z,2.63
2023-05-14T16:16:34.297Z,2.50
2023-05-14T16:19:01.754Z,2.37
2023-05-14T16:21:29.165Z,1.87
2023-05-14T16:23:56.709Z,2.10
2023-05-14T16:26:24.122Z,2.27
2023-05-14T16:28:52.927Z,2.10
2023-05-14T16:31:20.296Z,2.13
2023-05-14T16:33:47.694Z,2.00
2023-05-14T16:36:15.134Z,1.93
2023-05-14T16:38:57.140Z,2.13
2023-05-14T16:41:29.947Z,2.20
2023-05-14T16:43:58.827Z,2.40
2023-05-14T16:46:28.095Z,2.53
2023-05-14T16:48:55.606Z,2.40
2023-05-14T16:51:22.969Z,2.50
2023-05-14T16:53:51.272Z,3.17
2023-05-14T16:56:19.433Z,2.80
2023-05-14T16:58:46.852Z,3.20
2023-05-14T17:01:15.736Z,3.20
2023-05-14T17:03:43.554Z,3.73
2023-05-14T17:06:11.151Z,3.33
2023-05-14T17:08:38.536Z,2.87
2023-05-14T17:11:06.097Z,2.73
2023-05-14T17:13:34.088Z,2.80
2023-05-14T17:16:03.044Z,3.10
2023-05-14T17:18:32.610Z,3.40
2023-05-14T17:21:00.707Z,2.97
2023-05-14T17:23:28.097Z,4.37
2023-05-14T17:25:56.545Z,3.57
2023-05-14T17:28:24.811Z,4.83
2023-05-14T17:30:52.251Z,4.50
2023-05-14T17:33:19.617Z,4.57
2023-05-14T17:35:48.484Z,3.70
2023-05-14T17:38:16.975Z,4.33
2023-05-14T17:40:44.377Z,3.73
2023-05-14T17:43:11.799Z,3.20
2023-05-14T17:45:52.429Z,3.23
2023-05-14T17:48:22.156Z,3.73
2023-05-14T17:50:51.053Z,3.70
2023-05-14T17:53:18.525Z,4.50
2023-05-14T17:55:45.949Z,4.00
2023-05-14T17:58:15.195Z,4.03
2023-05-14T18:00:43.288Z,3.93
2023-05-14T18:03:11.267Z,4.27
2023-05-14T18:05:38.894Z,3.50
2023-05-14T18:08:08.967Z,3.83
2023-05-14T18:10:36.418Z,3.97
2023-05-14T18:13:03.870Z,3.33
2023-05-14T18:15:31.432Z,3.53
2023-05-14T18:17:58.899Z,3.47
2023-05-14T18:20:26.360Z,3.50
2023-05-14T18:22:53.718Z,3.50
2023-05-14T18:25:22.772Z,3.60
2023-05-14T18:27:50.515Z,3.60
2023-05-14T18:30:18.013Z,3.20
2023-05-14T18:32:45.737Z,2.63
2023-05-14T18:35:13.723Z,3.20
2023-05-14T18:37:41.660Z,3.27
2023-05-14T18:40:09.508Z,3.43
2023-05-14T18:42:38.259Z,3.40
2023-05-14T18:45:05.871Z,3.27
2023-05-14T18:47:33.432Z,3.53
2023-05-14T18:50:02.017Z,3.53
2023-05-14T18:52:29.929Z,3.70
2023-05-14T18:54:57.470Z,3.70
2023-05-14T18:57:24.900Z,3.70
2023-05-14T18:59:53.690Z,4.50
2023-05-14T19:02:21.155Z,3.20
2023-05-14T19:04:52.692Z,3.93
2023-05-14T19:07:20.849Z,3.60
2023-05-14T19:09:48.461Z,3.23
2023-05-14T19:12:16.811Z,3.37
2023-05-14T19:14:44.200Z,3.70
2023-05-14T19:17:13.105Z,3.30
2023-05-14T19:19:40.649Z,3.53
2023-05-14T19:22:08.058Z,3.60
2023-05-14T19:24:37.548Z,3.40
2023-05-14T19:27:05.371Z,3.70
2023-05-14T19:29:33.690Z,4.47
2023-05-14T19:32:01.920Z,3.73
2023-05-14T19:34:30.813Z,3.80
2023-05-14T19:36:58.180Z,3.93
2023-05-14T19:39:25.588Z,4.50
2023-05-14T19:41:52.992Z,4.17
2023-05-14T19:44:20.767Z,4.40
2023-05-14T19:46:48.237Z,4.40
2023-05-14T19:49:15.661Z,4.00
2023-05-14T19:51:44.382Z,4.03
2023-05-14T19:54:11.761Z,4.10
2023-05-14T19:56:39.174Z,4.67
2023-05-14T19:59:06.852Z,4.57
2023-05-14T20:01:34.734Z,4.90
2023-05-14T20:04:03.159Z,4.57
2023-05-14T20:06:30.780Z,4.20
2023-05-14T20:09:00.186Z,5.43
2023-05-14T20:11:28.572Z,7.30
2023-05-14T20:13:55.937Z,6.17
2023-05-14T20:16:23.831Z,5.60
2023-05-14T20:18:51.420Z,4.77
2023-05-14T20:21:18.957Z,4.03
2023-05-14T20:23:46.364Z,4.20
2023-05-14T20:26:15.176Z,4.40
2023-05-14T20:28:43.371Z,4.30
2023-05-14T20:31:10.806Z,4.13
2023-05-14T20:33:38.240Z,4.23
2023-05-14T20:36:05.683Z,4.10
2023-05-14T20:38:34.808Z,3.80
2023-05-14T20:41:02.327Z,4.00
2023-05-14T20:43:31.027Z,4.10
2023-05-14T20:45:59.242Z,4.10
2023-05-14T20:48:26.712Z,3.90
2023-05-14T20:50:54.108Z,4.10
2023-05-14T20:53:21.469Z,4.00
2023-05-14T20:55:48.869Z,4.03
2023-05-14T20:58:16.258Z,4.30
2023-05-14T21:00:44.984Z,4.00
2023-05-14T21:03:12.424Z,3.90
2023-05-14T21:05:41.392Z,4.17
2023-05-14T21:08:08.773Z,4.13
2023-05-14T21:10:36.306Z,4.97
2023-05-14T21:13:03.721Z,4.63
2023-05-14T21:15:31.262Z,4.83
2023-05-14T21:18:00.107Z,4.70
2023-05-14T21:20:27.571Z,5.17
2023-05-14T21:22:55.001Z,5.13
2023-05-14T21:25:23.201Z,4.77
2023-05-14T21:27:50.727Z,4.63
2023-05-14T21:30:18.167Z,4.63
2023-05-14T21:32:45.805Z,5.07
2023-05-14T21:35:14.549Z,4.80
2023-05-14T21:37:41.936Z,4.53
2023-05-14T21:40:12.031Z,5.10
2023-05-14T21:42:40.647Z,5.40
2023-05-14T21:45:08.552Z,5.10
2023-05-14T21:47:36.183Z,4.90
2023-05-14T21:50:04.773Z,5.03
2023-05-14T21:52:33.562Z,5.50
2023-05-14T21:55:01.006Z,5.43
2023-05-14T21:57:31.826Z,5.37
2023-05-14T22:00:01.626Z,5.90
2023-05-14T22:02:32.032Z,5.80
2023-05-14T22:04:59.448Z,6.73
2023-05-14T22:07:26.871Z,6.77
2023-05-14T22:09:55.823Z,6.17
2023-05-14T22:12:23.210Z,6.23
2023-05-14T22:14:50.599Z,5.80
2023-05-14T22:17:18.012Z,5.60
2023-05-14T22:19:45.505Z,5.70
2023-05-14T22:22:12.947Z,5.87
2023-05-14T22:24:40.312Z,5.60
2023-05-14T22:27:09.044Z,5.80
2023-05-14T22:29:38.152Z,5.90
2023-05-14T22:32:07.434Z,5.53
2023-05-14T22:34:34.911Z,5.60
2023-05-14T22:37:02.888Z,5.43
2023-05-14T22:39:30.500Z,5.27
2023-05-14T22:41:57.995Z,4.63
2023-05-14T22:44:28.446Z,4.80
2023-05-14T22:46:57.445Z,4.93
2023-05-14T22:49:25.035Z,4.37
2023-05-14T22:51:54.088Z,4.20
2023-05-14T22:54:21.719Z,4.70
2023-05-14T22:56:49.133Z,4.37
2023-05-14T22:59:16.512Z,4.83
2023-05-14T23:01:45.436Z,5.00
2023-05-14T23:04:12.896Z,4.47
2023-05-14T23:06:40.337Z,4.67
2023-05-14T23:09:07.747Z,5.00
2023-05-14T23:11:35.225Z,4.10
2023-05-14T23:14:02.641Z,4.73
2023-05-14T23:16:30.042Z,4.43
2023-05-14T23:18:58.985Z,4.40
2023-05-14T23:21:26.653Z,4.20
2023-05-14T23:23:54.040Z,4.23
2023-05-14T23:26:21.491Z,4.40
2023-05-14T23:28:48.889Z,4.20
2023-05-14T23:31:16.308Z,4.70
2023-05-14T23:33:44.916Z,4.20
2023-05-14T23:36:13.753Z,4.40
2023-05-14T23:38:41.286Z,4.60
2023-05-14T23:41:08.665Z,5.00
2023-05-14T23:43:36.090Z,5.10
2023-05-14T23:46:03.926Z,4.73
2023-05-14T23:48:31.618Z,4.80
2023-05-14T23:50:59.030Z,5.50
2023-05-14T23:53:27.772Z,6.10
2023-05-14T23:55:55.254Z,6.57
2023-05-14T23:58:22.696Z,5.97
